Amazon Brilliance — C6CK8 — position and weather

sailwx.info

Track history (hours):
 
Tides and Currents Weather Stations Pressure Air Temp Water Temp Dewpoint Dewpoint Depression Visibility Wind Speed Wind Dir Waves Ship Positions

Amazon Brilliance

Last reported at 2018-Apr-21 01:50 UTC. Time now 2018-Apr-24 12:42 UTC.
Position N 39°41' W 029°26'.

Length 227 m; draft 11.5 m.

Type: Ship. MMSI: 311000500.

Date/timePositionNaut miles runAvg speedWind from/ knotsBaromVisibWave heightAir tempDewpointWater temp
2018-Apr-21 01:50N 39°41' W 029°26'411.8
2018-Apr-21 01:28N 39°40' W 029°21'812.0
2018-Apr-21 00:48N 39°38' W 029°10'512.3
2018-Apr-21 00:24N 39°37' W 029°04'612.3
2018-Apr-20 23:55N 39°35' W 028°57'512.1
2018-Apr-20 23:30N 39°34' W 028°50'712.0
2018-Apr-20 22:55N 39°32' W 028°42'1212.0
2018-Apr-20 21:54N 39°29' W 028°26'711.7
2018-Apr-20 21:16N 39°28' W 028°17'311.4
2018-Apr-20 21:00N 39°27' W 028°13'611.8
2018-Apr-20 20:29N 39°25' W 028°05'611.9
2018-Apr-20 19:58N 39°24' W 027°58'611.9
2018-Apr-20 19:30N 39°22' W 027°51'611.7
2018-Apr-20 19:00N 39°21' W 027°43'611.8
2018-Apr-20 18:30N 39°20' W 027°36'611.7
2018-Apr-20 18:00N 39°18' W 027°29'  
2018-Apr-18 03:01N 36°35' W 013°45'010.4
2018-Apr-18 03:00N 36°35' W 013°45'510.2
2018-Apr-18 02:30N 36°34' W 013°39'510.2
2018-Apr-18 02:00N 36°33' W 013°33'1810.3
2018-Apr-18 00:15N 36°28' W 013°11'710.2
2018-Apr-17 23:35N 36°27' W 013°03'110.0
2018-Apr-17 23:30N 36°26' W 013°02'37011.5
2018-Apr-16 15:17N 36°01' W 005°24'3 9.0
2018-Apr-16 15:00N 36°01' W 005°21'4 8.8
2018-Apr-16 14:30N 36°03' W 005°16'27311.1
2018-Apr-15 13:59N 36°42' E 000°20'  
2018-Apr-13 06:44N 36°42' E 013°50'312.8
2018-Apr-13 06:29N 36°41' E 013°54'612.5
2018-Apr-13 06:00N 36°38' E 014°01'612.5
2018-Apr-13 05:29N 36°36' E 014°09'1512.5
2018-Apr-13 04:19N 36°31' E 014°25'612.7
2018-Apr-13 03:50N 36°28' E 014°33'74 3.4
2018-Apr-12 05:41N 37°29' E 015°26'0 1.8
2018-Apr-12 05:28N 37°29' E 015°26'3 1.5
2018-Apr-12 03:17N 37°30' E 015°30'6 0.7
2018-Apr-11 18:45N 37°34' E 015°34'0 1.4
2018-Apr-11 18:29N 37°34' E 015°35'  
Track history (hours):
 
Tides and Currents Weather Stations Pressure Air Temp Water Temp Dewpoint Dewpoint Depression Visibility Wind Speed Wind Dir Waves Ship Positions

Amazon Brilliance

Last reported at 2018-Apr-21 01:50 UTC. Time now 2018-Apr-24 12:42 UTC.
Position N 39°41' W 029°26'.

Length 227 m; draft 11.5 m.

Type: Ship. MMSI: 311000500.

Date/timePositionNaut miles runAvg speedWind from/ knotsBaromVisibWave heightAir tempDewpointWater temp
2018-Apr-21 01:50N 39°41' W 029°26'411.8
2018-Apr-21 01:28N 39°40' W 029°21'812.0
2018-Apr-21 00:48N 39°38' W 029°10'512.3
2018-Apr-21 00:24N 39°37' W 029°04'612.3
2018-Apr-20 23:55N 39°35' W 028°57'512.1
2018-Apr-20 23:30N 39°34' W 028°50'712.0
2018-Apr-20 22:55N 39°32' W 028°42'1212.0
2018-Apr-20 21:54N 39°29' W 028°26'711.7
2018-Apr-20 21:16N 39°28' W 028°17'311.4
2018-Apr-20 21:00N 39°27' W 028°13'611.8
2018-Apr-20 20:29N 39°25' W 028°05'611.9
2018-Apr-20 19:58N 39°24' W 027°58'611.9
2018-Apr-20 19:30N 39°22' W 027°51'611.7
2018-Apr-20 19:00N 39°21' W 027°43'611.8
2018-Apr-20 18:30N 39°20' W 027°36'611.7
2018-Apr-20 18:00N 39°18' W 027°29'  
2018-Apr-18 03:01N 36°35' W 013°45'010.4
2018-Apr-18 03:00N 36°35' W 013°45'510.2
2018-Apr-18 02:30N 36°34' W 013°39'510.2
2018-Apr-18 02:00N 36°33' W 013°33'1810.3
2018-Apr-18 00:15N 36°28' W 013°11'710.2
2018-Apr-17 23:35N 36°27' W 013°03'110.0
2018-Apr-17 23:30N 36°26' W 013°02'37011.5
2018-Apr-16 15:17N 36°01' W 005°24'3 9.0
2018-Apr-16 15:00N 36°01' W 005°21'4 8.8
2018-Apr-16 14:30N 36°03' W 005°16'27311.1
2018-Apr-15 13:59N 36°42' E 000°20'  
2018-Apr-13 06:44N 36°42' E 013°50'312.8
2018-Apr-13 06:29N 36°41' E 013°54'612.5
2018-Apr-13 06:00N 36°38' E 014°01'612.5
2018-Apr-13 05:29N 36°36' E 014°09'1512.5
2018-Apr-13 04:19N 36°31' E 014°25'612.7
2018-Apr-13 03:50N 36°28' E 014°33'74 3.4
2018-Apr-12 05:41N 37°29' E 015°26'0 1.8
2018-Apr-12 05:28N 37°29' E 015°26'3 1.5
2018-Apr-12 03:17N 37°30' E 015°30'6 0.7
2018-Apr-11 18:45N 37°34' E 015°34'0 1.4
2018-Apr-11 18:29N 37°34' E 015°35'  

Dump ship's entire track history